sensor_id;sensor_type;location;lat;lon;timestamp;temperature;humidity
1453;DHT22;720;47.738;7.998;2023-11-19T00:02:19;13.30;99.20
1453;DHT22;720;47.738;7.998;2023-11-19T00:04:44;13.10;99.50
1453;DHT22;720;47.738;7.998;2023-11-19T00:07:10;13.00;99.80
1453;DHT22;720;47.738;7.998;2023-11-19T00:09:38;13.10;99.90
1453;DHT22;720;47.738;7.998;2023-11-19T00:12:06;13.10;99.90
1453;DHT22;720;47.738;7.998;2023-11-19T00:14:31;13.10;99.90
1453;DHT22;720;47.738;7.998;2023-11-19T00:16:57;13.00;99.90
1453;DHT22;720;47.738;7.998;2023-11-19T00:19:23;12.80;99.90
1453;DHT22;720;47.738;7.998;2023-11-19T00:21:48;12.90;99.90
1453;DHT22;720;47.738;7.998;2023-11-19T00:24:14;13.00;99.90
1453;DHT22;720;47.738;7.998;2023-11-19T00:27:00;13.30;99.90
1453;DHT22;720;47.738;7.998;2023-11-19T00:29:26;13.30;99.70
1453;DHT22;720;47.738;7.998;2023-11-19T00:31:51;13.30;99.90
1453;DHT22;720;47.738;7.998;2023-11-19T00:34:17;13.30;99.80
1453;DHT22;720;47.738;7.998;2023-11-19T00:36:46;13.20;99.90
1453;DHT22;720;47.738;7.998;2023-11-19T00:39:12;13.30;99.80
1453;DHT22;720;47.738;7.998;2023-11-19T00:41:41;13.10;99.60
1453;DHT22;720;47.738;7.998;2023-11-19T00:44:08;13.30;99.50
1453;DHT22;720;47.738;7.998;2023-11-19T00:46:34;13.30;99.40
1453;DHT22;720;47.738;7.998;2023-11-19T00:48:59;13.30;99.80
1453;DHT22;720;47.738;7.998;2023-11-19T00:51:26;13.40;99.70
1453;DHT22;720;47.738;7.998;2023-11-19T00:53:52;13.50;99.50
1453;DHT22;720;47.738;7.998;2023-11-19T00:56:21;13.50;99.60
1453;DHT22;720;47.738;7.998;2023-11-19T00:58:46;13.50;99.90
1453;DHT22;720;47.738;7.998;2023-11-19T01:01:13;13.60;99.70
1453;DHT22;720;47.738;7.998;2023-11-19T01:03:38;13.50;99.60
1453;DHT22;720;47.738;7.998;2023-11-19T01:06:04;13.60;99.60
1453;DHT22;720;47.738;7.998;2023-11-19T01:08:30;13.70;99.40
1453;DHT22;720;47.738;7.998;2023-11-19T01:10:56;13.50;99.60
1453;DHT22;720;47.738;7.998;2023-11-19T01:13:21;13.30;99.80
1453;DHT22;720;47.738;7.998;2023-11-19T01:15:47;13.20;99.90
1453;DHT22;720;47.738;7.998;2023-11-19T01:18:13;13.30;99.90
1453;DHT22;720;47.738;7.998;2023-11-19T01:20:39;13.20;99.90
1453;DHT22;720;47.738;7.998;2023-11-19T01:23:04;13.30;99.90
1453;DHT22;720;47.738;7.998;2023-11-19T01:25:30;13.10;99.90
1453;DHT22;720;47.738;7.998;2023-11-19T01:27:56;13.00;99.90
1453;DHT22;720;47.738;7.998;2023-11-19T01:30:24;13.20;99.90
1453;DHT22;720;47.738;7.998;2023-11-19T01:32:50;13.40;99.90
1453;DHT22;720;47.738;7.998;2023-11-19T01:35:16;13.50;99.90
1453;DHT22;720;47.738;7.998;2023-11-19T01:37:41;13.60;99.90
1453;DHT22;720;47.738;7.998;2023-11-19T01:40:07;13.60;99.90
1453;DHT22;720;47.738;7.998;2023-11-19T01:42:37;13.70;99.90
1453;DHT22;720;47.738;7.998;2023-11-19T01:45:04;13.70;99.90
1453;DHT22;720;47.738;7.998;2023-11-19T01:47:33;13.80;99.90
1453;DHT22;720;47.738;7.998;2023-11-19T01:49:59;13.80;99.90
1453;DHT22;720;47.738;7.998;2023-11-19T01:52:25;13.70;99.90
1453;DHT22;720;47.738;7.998;2023-11-19T01:54:52;13.80;99.90
1453;DHT22;720;47.738;7.998;2023-11-19T01:57:21;13.80;99.80
1453;DHT22;720;47.738;7.998;2023-11-19T01:59:50;13.60;99.90
1453;DHT22;720;47.738;7.998;2023-11-19T02:02:17;13.60;99.90
1453;DHT22;720;47.738;7.998;2023-11-19T02:04:47;13.50;99.90
1453;DHT22;720;47.738;7.998;2023-11-19T02:07:15;13.60;99.90
1453;DHT22;720;47.738;7.998;2023-11-19T02:09:43;13.90;99.90
1453;DHT22;720;47.738;7.998;2023-11-19T02:12:09;14.00;99.90
1453;DHT22;720;47.738;7.998;2023-11-19T02:14:37;14.10;99.90
1453;DHT22;720;47.738;7.998;2023-11-19T02:17:03;14.00;99.90
1453;DHT22;720;47.738;7.998;2023-11-19T02:19:29;14.20;99.80
1453;DHT22;720;47.738;7.998;2023-11-19T02:21:55;14.30;99.40
1453;DHT22;720;47.738;7.998;2023-11-19T02:24:22;14.20;99.60
1453;DHT22;720;47.738;7.998;2023-11-19T02:29:14;14.00;99.90
1453;DHT22;720;47.738;7.998;2023-11-19T02:31:40;14.00;99.90
1453;DHT22;720;47.738;7.998;2023-11-19T02:34:05;13.80;99.90
1453;DHT22;720;47.738;7.998;2023-11-19T02:36:32;13.60;99.90
1453;DHT22;720;47.738;7.998;2023-11-19T02:38:58;13.50;99.90
1453;DHT22;720;47.738;7.998;2023-11-19T02:41:24;13.60;99.90
1453;DHT22;720;47.738;7.998;2023-11-19T02:43:49;13.60;99.90
1453;DHT22;720;47.738;7.998;2023-11-19T02:46:15;13.80;99.90
1453;DHT22;720;47.738;7.998;2023-11-19T02:48:44;13.60;99.90
1453;DHT22;720;47.738;7.998;2023-11-19T02:51:11;13.60;99.90
1453;DHT22;720;47.738;7.998;2023-11-19T02:53:37;13.70;99.90
1453;DHT22;720;47.738;7.998;2023-11-19T02:56:04;13.80;99.90
1453;DHT22;720;47.738;7.998;2023-11-19T02:58:51;13.90;99.90
1453;DHT22;720;47.738;7.998;2023-11-19T03:01:24;13.90;99.90
1453;DHT22;720;47.738;7.998;2023-11-19T03:04:02;14.00;99.90
1453;DHT22;720;47.738;7.998;2023-11-19T03:06:29;14.10;99.90
1453;DHT22;720;47.738;7.998;2023-11-19T03:08:56;14.20;99.90
1453;DHT22;720;47.738;7.998;2023-11-19T03:11:21;14.30;99.90
1453;DHT22;720;47.738;7.998;2023-11-19T03:13:47;14.30;99.90
1453;DHT22;720;47.738;7.998;2023-11-19T03:16:13;14.30;99.90
1453;DHT22;720;47.738;7.998;2023-11-19T03:18:39;14.10;99.90
1453;DHT22;720;47.738;7.998;2023-11-19T03:21:07;14.10;99.90
1453;DHT22;720;47.738;7.998;2023-11-19T03:23:34;14.10;99.90
1453;DHT22;720;47.738;7.998;2023-11-19T03:26:00;14.10;99.90
1453;DHT22;720;47.738;7.998;2023-11-19T03:28:31;14.10;99.90
1453;DHT22;720;47.738;7.998;2023-11-19T03:30:57;14.00;99.90
1453;DHT22;720;47.738;7.998;2023-11-19T03:33:23;14.20;99.90
1453;DHT22;720;47.738;7.998;2023-11-19T03:35:48;14.20;99.90
1453;DHT22;720;47.738;7.998;2023-11-19T03:38:14;14.10;99.90
1453;DHT22;720;47.738;7.998;2023-11-19T03:40:40;14.00;99.90
1453;DHT22;720;47.738;7.998;2023-11-19T03:43:06;14.00;99.90
1453;DHT22;720;47.738;7.998;2023-11-19T03:45:31;14.20;99.90
1453;DHT22;720;47.738;7.998;2023-11-19T03:47:57;14.40;99.90
1453;DHT22;720;47.738;7.998;2023-11-19T03:50:23;14.50;99.90
1453;DHT22;720;47.738;7.998;2023-11-19T03:52:50;14.70;99.70
1453;DHT22;720;47.738;7.998;2023-11-19T03:55:17;14.60;99.70
1453;DHT22;720;47.738;7.998;2023-11-19T03:57:43;14.80;99.30
1453;DHT22;720;47.738;7.998;2023-11-19T04:00:09;14.90;99.00
1453;DHT22;720;47.738;7.998;2023-11-19T04:02:36;14.40;99.30
1453;DHT22;720;47.738;7.998;2023-11-19T04:05:02;13.70;99.90
1453;DHT22;720;47.738;7.998;2023-11-19T04:07:29;13.50;99.90
1453;DHT22;720;47.738;7.998;2023-11-19T04:09:55;13.40;99.90
1453;DHT22;720;47.738;7.998;2023-11-19T04:12:21;13.40;99.90
1453;DHT22;720;47.738;7.998;2023-11-19T04:14:47;12.80;99.90
1453;DHT22;720;47.738;7.998;2023-11-19T04:17:13;13.20;99.90
1453;DHT22;720;47.738;7.998;2023-11-19T04:19:38;13.50;99.90
1453;DHT22;720;47.738;7.998;2023-11-19T04:22:09;13.50;99.90
1453;DHT22;720;47.738;7.998;2023-11-19T04:24:35;13.70;99.90
1453;DHT22;720;47.738;7.998;2023-11-19T04:27:00;13.70;99.90
1453;DHT22;720;47.738;7.998;2023-11-19T04:29:26;13.90;99.90
1453;DHT22;720;47.738;7.998;2023-11-19T04:31:52;14.10;99.90
1453;DHT22;720;47.738;7.998;2023-11-19T04:34:17;14.20;99.90
1453;DHT22;720;47.738;7.998;2023-11-19T04:36:43;14.20;99.90
1453;DHT22;720;47.738;7.998;2023-11-19T04:39:09;13.80;99.90
1453;DHT22;720;47.738;7.998;2023-11-19T04:41:51;13.50;99.90
1453;DHT22;720;47.738;7.998;2023-11-19T04:44:19;13.50;99.90
1453;DHT22;720;47.738;7.998;2023-11-19T04:46:45;13.50;99.90
1453;DHT22;720;47.738;7.998;2023-11-19T04:49:11;13.30;99.90
1453;DHT22;720;47.738;7.998;2023-11-19T04:51:40;13.10;99.90
1453;DHT22;720;47.738;7.998;2023-11-19T04:54:08;13.20;99.90
1453;DHT22;720;47.738;7.998;2023-11-19T04:56:37;13.00;99.90
1453;DHT22;720;47.738;7.998;2023-11-19T04:59:03;13.20;99.90
1453;DHT22;720;47.738;7.998;2023-11-19T05:01:34;13.50;99.90
1453;DHT22;720;47.738;7.998;2023-11-19T05:04:00;13.70;99.90
1453;DHT22;720;47.738;7.998;2023-11-19T05:06:27;13.50;99.90
1453;DHT22;720;47.738;7.998;2023-11-19T05:08:53;13.40;99.90
1453;DHT22;720;47.738;7.998;2023-11-19T05:11:19;13.70;99.90
1453;DHT22;720;47.738;7.998;2023-11-19T05:13:45;13.60;99.90
1453;DHT22;720;47.738;7.998;2023-11-19T05:16:11;13.50;99.90
1453;DHT22;720;47.738;7.998;2023-11-19T05:18:40;13.70;99.90
1453;DHT22;720;47.738;7.998;2023-11-19T05:21:05;14.00;99.90
1453;DHT22;720;47.738;7.998;2023-11-19T05:23:32;14.10;99.90
1453;DHT22;720;47.738;7.998;2023-11-19T05:26:00;14.10;99.90
1453;DHT22;720;47.738;7.998;2023-11-19T05:28:26;13.90;99.90
1453;DHT22;720;47.738;7.998;2023-11-19T05:30:52;13.70;99.90
1453;DHT22;720;47.738;7.998;2023-11-19T05:33:17;13.70;99.90
1453;DHT22;720;47.738;7.998;2023-11-19T05:35:43;13.80;99.90
1453;DHT22;720;47.738;7.998;2023-11-19T05:38:09;13.80;99.90
1453;DHT22;720;47.738;7.998;2023-11-19T05:40:35;13.60;99.90
1453;DHT22;720;47.738;7.998;2023-11-19T05:43:01;13.40;99.90
1453;DHT22;720;47.738;7.998;2023-11-19T05:45:28;13.70;99.90
1453;DHT22;720;47.738;7.998;2023-11-19T05:47:54;13.70;99.90
1453;DHT22;720;47.738;7.998;2023-11-19T05:50:19;13.40;99.90
1453;DHT22;720;47.738;7.998;2023-11-19T05:52:45;13.00;99.90
1453;DHT22;720;47.738;7.998;2023-11-19T05:55:11;13.30;99.90
1453;DHT22;720;47.738;7.998;2023-11-19T05:57:38;13.00;99.90
1453;DHT22;720;47.738;7.998;2023-11-19T06:00:04;13.00;99.90
1453;DHT22;720;47.738;7.998;2023-11-19T06:02:38;12.80;99.90
1453;DHT22;720;47.738;7.998;2023-11-19T06:05:05;13.20;99.90
1453;DHT22;720;47.738;7.998;2023-11-19T06:07:32;13.50;99.90
1453;DHT22;720;47.738;7.998;2023-11-19T06:09:57;13.50;99.90
1453;DHT22;720;47.738;7.998;2023-11-19T06:12:23;13.50;99.90
1453;DHT22;720;47.738;7.998;2023-11-19T06:14:49;13.60;99.90
1453;DHT22;720;47.738;7.998;2023-11-19T06:17:14;13.80;99.90
1453;DHT22;720;47.738;7.998;2023-11-19T06:19:40;13.70;99.90
1453;DHT22;720;47.738;7.998;2023-11-19T06:22:05;13.80;99.90
1453;DHT22;720;47.738;7.998;2023-11-19T06:24:32;13.60;99.90
1453;DHT22;720;47.738;7.998;2023-11-19T06:26:57;13.00;99.90
1453;DHT22;720;47.738;7.998;2023-11-19T06:29:23;12.60;99.90
1453;DHT22;720;47.738;7.998;2023-11-19T06:31:50;12.20;99.90
1453;DHT22;720;47.738;7.998;2023-11-19T06:34:16;12.00;99.90
1453;DHT22;720;47.738;7.998;2023-11-19T06:36:42;11.70;99.90
1453;DHT22;720;47.738;7.998;2023-11-19T06:39:10;11.50;99.90
1453;DHT22;720;47.738;7.998;2023-11-19T06:41:44;11.50;99.90
1453;DHT22;720;47.738;7.998;2023-11-19T06:44:10;11.40;99.90
1453;DHT22;720;47.738;7.998;2023-11-19T06:46:36;11.30;99.90
1453;DHT22;720;47.738;7.998;2023-11-19T06:49:01;11.20;99.90
1453;DHT22;720;47.738;7.998;2023-11-19T06:51:27;11.20;99.90
1453;DHT22;720;47.738;7.998;2023-11-19T06:53:53;11.20;99.90
1453;DHT22;720;47.738;7.998;2023-11-19T06:56:22;11.20;99.90
1453;DHT22;720;47.738;7.998;2023-11-19T06:58:49;11.30;99.90
1453;DHT22;720;47.738;7.998;2023-11-19T07:01:16;11.40;99.90
1453;DHT22;720;47.738;7.998;2023-11-19T07:03:46;11.50;99.90
1453;DHT22;720;47.738;7.998;2023-11-19T07:06:12;11.40;99.90
1453;DHT22;720;47.738;7.998;2023-11-19T07:08:39;11.40;99.90
1453;DHT22;720;47.738;7.998;2023-11-19T07:11:06;11.40;99.90
1453;DHT22;720;47.738;7.998;2023-11-19T07:13:32;11.50;99.90
1453;DHT22;720;47.738;7.998;2023-11-19T07:15:57;11.60;99.90
1453;DHT22;720;47.738;7.998;2023-11-19T07:18:23;11.60;99.90
1453;DHT22;720;47.738;7.998;2023-11-19T07:20:49;11.60;99.90
1453;DHT22;720;47.738;7.998;2023-11-19T07:23:15;11.50;99.90
1453;DHT22;720;47.738;7.998;2023-11-19T07:25:42;11.60;99.90
1453;DHT22;720;47.738;7.998;2023-11-19T07:28:09;11.60;99.90
1453;DHT22;720;47.738;7.998;2023-11-19T07:30:35;11.60;99.90
1453;DHT22;720;47.738;7.998;2023-11-19T07:33:01;11.50;99.90
1453;DHT22;720;47.738;7.998;2023-11-19T07:35:29;11.40;99.90
1453;DHT22;720;47.738;7.998;2023-11-19T07:37:56;11.40;99.90
1453;DHT22;720;47.738;7.998;2023-11-19T07:40:25;11.40;99.90
1453;DHT22;720;47.738;7.998;2023-11-19T07:42:51;11.40;99.90
1453;DHT22;720;47.738;7.998;2023-11-19T07:45:18;11.50;99.90
1453;DHT22;720;47.738;7.998;2023-11-19T07:47:43;11.60;99.90
1453;DHT22;720;47.738;7.998;2023-11-19T07:50:10;11.70;99.90
1453;DHT22;720;47.738;7.998;2023-11-19T07:52:38;11.80;99.90
1453;DHT22;720;47.738;7.998;2023-11-19T07:55:04;11.90;99.90
1453;DHT22;720;47.738;7.998;2023-11-19T07:57:30;12.00;99.90
1453;DHT22;720;47.738;7.998;2023-11-19T07:59:57;11.90;99.90
1453;DHT22;720;47.738;7.998;2023-11-19T08:02:23;11.80;99.90
1453;DHT22;720;47.738;7.998;2023-11-19T08:04:49;11.80;99.90
1453;DHT22;720;47.738;7.998;2023-11-19T08:07:17;11.80;99.90
1453;DHT22;720;47.738;7.998;2023-11-19T08:09:43;11.90;99.90
1453;DHT22;720;47.738;7.998;2023-11-19T08:12:09;12.00;99.90
1453;DHT22;720;47.738;7.998;2023-11-19T08:14:35;12.00;99.90
1453;DHT22;720;47.738;7.998;2023-11-19T08:17:00;12.10;99.90
1453;DHT22;720;47.738;7.998;2023-11-19T08:19:26;12.00;99.90
1453;DHT22;720;47.738;7.998;2023-11-19T08:21:52;12.00;99.90
1453;DHT22;720;47.738;7.998;2023-11-19T08:24:17;12.10;99.90
1453;DHT22;720;47.738;7.998;2023-11-19T08:26:43;12.10;99.90
1453;DHT22;720;47.738;7.998;2023-11-19T08:29:09;12.10;99.90
1453;DHT22;720;47.738;7.998;2023-11-19T08:31:35;12.20;99.90
1453;DHT22;720;47.738;7.998;2023-11-19T08:34:01;12.20;99.90
1453;DHT22;720;47.738;7.998;2023-11-19T08:36:27;12.20;99.90
1453;DHT22;720;47.738;7.998;2023-11-19T08:38:53;12.30;99.90
1453;DHT22;720;47.738;7.998;2023-11-19T08:41:20;12.20;99.90
1453;DHT22;720;47.738;7.998;2023-11-19T08:43:47;12.00;99.90
1453;DHT22;720;47.738;7.998;2023-11-19T08:46:12;12.00;99.90
1453;DHT22;720;47.738;7.998;2023-11-19T08:48:39;12.10;99.90
1453;DHT22;720;47.738;7.998;2023-11-19T08:51:05;12.10;99.90
1453;DHT22;720;47.738;7.998;2023-11-19T08:53:30;12.20;99.90
1453;DHT22;720;47.738;7.998;2023-11-19T08:55:56;12.00;99.90
1453;DHT22;720;47.738;7.998;2023-11-19T08:58:22;11.90;99.90
1453;DHT22;720;47.738;7.998;2023-11-19T09:00:47;12.00;99.90
1453;DHT22;720;47.738;7.998;2023-11-19T09:03:13;12.00;99.90
1453;DHT22;720;47.738;7.998;2023-11-19T09:05:39;11.90;99.90
1453;DHT22;720;47.738;7.998;2023-11-19T09:08:05;11.90;99.90
1453;DHT22;720;47.738;7.998;2023-11-19T09:10:30;11.90;99.90
1453;DHT22;720;47.738;7.998;2023-11-19T09:12:56;12.10;99.90
1453;DHT22;720;47.738;7.998;2023-11-19T09:15:21;12.20;99.90
1453;DHT22;720;47.738;7.998;2023-11-19T09:17:47;12.20;99.90
1453;DHT22;720;47.738;7.998;2023-11-19T09:20:13;12.30;99.90
1453;DHT22;720;47.738;7.998;2023-11-19T09:22:43;12.30;99.90
1453;DHT22;720;47.738;7.998;2023-11-19T09:25:09;12.20;99.90
1453;DHT22;720;47.738;7.998;2023-11-19T09:27:35;12.10;99.90
1453;DHT22;720;47.738;7.998;2023-11-19T09:30:01;12.20;99.90
1453;DHT22;720;47.738;7.998;2023-11-19T09:32:26;12.30;99.90
1453;DHT22;720;47.738;7.998;2023-11-19T09:34:52;12.30;99.90
1453;DHT22;720;47.738;7.998;2023-11-19T09:37:18;12.20;99.90
1453;DHT22;720;47.738;7.998;2023-11-19T09:39:43;12.30;99.90
1453;DHT22;720;47.738;7.998;2023-11-19T09:42:09;12.30;99.90
1453;DHT22;720;47.738;7.998;2023-11-19T09:44:40;12.20;99.90
1453;DHT22;720;47.738;7.998;2023-11-19T09:47:08;12.10;99.90
1453;DHT22;720;47.738;7.998;2023-11-19T09:49:36;12.10;99.90
1453;DHT22;720;47.738;7.998;2023-11-19T09:52:02;12.20;99.90
1453;DHT22;720;47.738;7.998;2023-11-19T09:54:28;12.20;99.90
1453;DHT22;720;47.738;7.998;2023-11-19T09:56:57;12.10;99.90
1453;DHT22;720;47.738;7.998;2023-11-19T09:59:29;12.10;99.90
1453;DHT22;720;47.738;7.998;2023-11-19T10:01:56;12.10;99.90
1453;DHT22;720;47.738;7.998;2023-11-19T10:04:22;12.10;99.90
1453;DHT22;720;47.738;7.998;2023-11-19T10:06:50;12.00;99.90
1453;DHT22;720;47.738;7.998;2023-11-19T10:09:16;12.00;99.90
1453;DHT22;720;47.738;7.998;2023-11-19T10:11:44;12.10;99.90
1453;DHT22;720;47.738;7.998;2023-11-19T10:14:10;12.20;99.90
1453;DHT22;720;47.738;7.998;2023-11-19T10:16:36;12.30;99.90
1453;DHT22;720;47.738;7.998;2023-11-19T10:19:02;12.20;99.90
1453;DHT22;720;47.738;7.998;2023-11-19T10:21:28;12.10;99.90
1453;DHT22;720;47.738;7.998;2023-11-19T10:23:55;12.30;99.90
1453;DHT22;720;47.738;7.998;2023-11-19T10:26:26;12.30;99.90
1453;DHT22;720;47.738;7.998;2023-11-19T10:28:52;12.40;99.90
1453;DHT22;720;47.738;7.998;2023-11-19T10:31:20;12.50;99.90
1453;DHT22;720;47.738;7.998;2023-11-19T10:33:52;12.60;99.90
1453;DHT22;720;47.738;7.998;2023-11-19T10:36:18;12.60;99.90
1453;DHT22;720;47.738;7.998;2023-11-19T10:38:56;12.40;99.90
1453;DHT22;720;47.738;7.998;2023-11-19T10:41:32;12.40;99.90
1453;DHT22;720;47.738;7.998;2023-11-19T10:43:58;12.50;99.90
1453;DHT22;720;47.738;7.998;2023-11-19T10:46:39;12.50;99.90
1453;DHT22;720;47.738;7.998;2023-11-19T10:49:09;12.60;99.90
1453;DHT22;720;47.738;7.998;2023-11-19T10:51:35;12.70;99.90
1453;DHT22;720;47.738;7.998;2023-11-19T10:54:05;12.70;99.90
1453;DHT22;720;47.738;7.998;2023-11-19T10:56:32;12.80;99.90
1453;DHT22;720;47.738;7.998;2023-11-19T10:58:59;13.00;99.90
1453;DHT22;720;47.738;7.998;2023-11-19T11:01:29;13.00;99.90
1453;DHT22;720;47.738;7.998;2023-11-19T11:03:59;13.00;99.90
1453;DHT22;720;47.738;7.998;2023-11-19T11:06:27;12.90;99.90
1453;DHT22;720;47.738;7.998;2023-11-19T11:08:54;12.70;99.90
1453;DHT22;720;47.738;7.998;2023-11-19T11:11:20;12.70;99.90
1453;DHT22;720;47.738;7.998;2023-11-19T11:13:50;12.70;99.90
1453;DHT22;720;47.738;7.998;2023-11-19T11:16:18;12.70;99.90
1453;DHT22;720;47.738;7.998;2023-11-19T11:18:48;12.70;99.90
1453;DHT22;720;47.738;7.998;2023-11-19T11:21:17;12.70;99.90
1453;DHT22;720;47.738;7.998;2023-11-19T11:32:41;12.30;99.90
1453;DHT22;720;47.738;7.998;2023-11-19T11:35:24;12.20;99.90
1453;DHT22;720;47.738;7.998;2023-11-19T11:38:08;12.20;99.90
1453;DHT22;720;47.738;7.998;2023-11-19T11:40:34;12.30;99.90
1453;DHT22;720;47.738;7.998;2023-11-19T11:43:01;12.20;99.90
1453;DHT22;720;47.738;7.998;2023-11-19T11:45:40;12.30;99.90
1453;DHT22;720;47.738;7.998;2023-11-19T11:48:16;12.20;99.90
1453;DHT22;720;47.738;7.998;2023-11-19T11:50:56;12.30;99.90
1453;DHT22;720;47.738;7.998;2023-11-19T11:53:24;12.40;99.90
1453;DHT22;720;47.738;7.998;2023-11-19T12:00:47;12.40;99.90
1453;DHT22;720;47.738;7.998;2023-11-19T12:03:12;12.50;99.90
1453;DHT22;720;47.738;7.998;2023-11-19T12:05:41;12.50;99.90
1453;DHT22;720;47.738;7.998;2023-11-19T12:08:08;12.60;99.90
1453;DHT22;720;47.738;7.998;2023-11-19T12:10:44;12.60;99.90
1453;DHT22;720;47.738;7.998;2023-11-19T12:13:10;12.70;99.90
1453;DHT22;720;47.738;7.998;2023-11-19T12:18:24;12.70;99.90
1453;DHT22;720;47.738;7.998;2023-11-19T12:20:50;12.60;99.90
1453;DHT22;720;47.738;7.998;2023-11-19T12:23:15;12.60;99.90
1453;DHT22;720;47.738;7.998;2023-11-19T12:25:41;12.70;99.90
1453;DHT22;720;47.738;7.998;2023-11-19T12:28:12;12.70;99.90
1453;DHT22;720;47.738;7.998;2023-11-19T12:30:38;12.80;99.90
1453;DHT22;720;47.738;7.998;2023-11-19T12:33:11;12.90;99.90
1453;DHT22;720;47.738;7.998;2023-11-19T12:35:44;12.80;99.90
1453;DHT22;720;47.738;7.998;2023-11-19T12:38:21;12.90;99.90
1453;DHT22;720;47.738;7.998;2023-11-19T12:40:47;12.90;99.90
1453;DHT22;720;47.738;7.998;2023-11-19T12:43:22;12.90;99.90
1453;DHT22;720;47.738;7.998;2023-11-19T12:45:49;12.80;99.90
1453;DHT22;720;47.738;7.998;2023-11-19T12:48:14;12.70;99.90
1453;DHT22;720;47.738;7.998;2023-11-19T12:50:53;12.70;99.90
1453;DHT22;720;47.738;7.998;2023-11-19T12:53:22;12.60;99.90
1453;DHT22;720;47.738;7.998;2023-11-19T12:55:48;12.50;99.90
1453;DHT22;720;47.738;7.998;2023-11-19T12:58:36;12.40;99.90
1453;DHT22;720;47.738;7.998;2023-11-19T13:01:06;12.50;99.90
1453;DHT22;720;47.738;7.998;2023-11-19T13:03:36;12.40;99.90
1453;DHT22;720;47.738;7.998;2023-11-19T13:06:04;12.50;99.90
1453;DHT22;720;47.738;7.998;2023-11-19T13:08:41;12.50;99.90
1453;DHT22;720;47.738;7.998;2023-11-19T13:11:08;12.50;99.90
1453;DHT22;720;47.738;7.998;2023-11-19T13:13:56;12.40;99.90
1453;DHT22;720;47.738;7.998;2023-11-19T13:16:23;12.40;99.90
1453;DHT22;720;47.738;7.998;2023-11-19T13:18:48;12.40;99.90
1453;DHT22;720;47.738;7.998;2023-11-19T13:21:14;12.50;99.90
1453;DHT22;720;47.738;7.998;2023-11-19T13:23:40;12.50;99.90
1453;DHT22;720;47.738;7.998;2023-11-19T13:26:06;12.40;99.90
1453;DHT22;720;47.738;7.998;2023-11-19T13:28:31;12.50;99.90
1453;DHT22;720;47.738;7.998;2023-11-19T13:30:57;12.50;99.90
1453;DHT22;720;47.738;7.998;2023-11-19T13:33:23;12.40;99.90
1453;DHT22;720;47.738;7.998;2023-11-19T13:35:49;12.40;99.90
1453;DHT22;720;47.738;7.998;2023-11-19T13:38:14;12.40;99.90
1453;DHT22;720;47.738;7.998;2023-11-19T13:40:40;12.40;99.90
1453;DHT22;720;47.738;7.998;2023-11-19T13:43:06;12.40;99.90
1453;DHT22;720;47.738;7.998;2023-11-19T13:45:33;12.60;99.90
1453;DHT22;720;47.738;7.998;2023-11-19T13:47:58;12.60;99.90
1453;DHT22;720;47.738;7.998;2023-11-19T13:50:24;12.40;99.90
1453;DHT22;720;47.738;7.998;2023-11-19T13:52:50;12.30;99.90
1453;DHT22;720;47.738;7.998;2023-11-19T13:55:15;12.40;99.90
1453;DHT22;720;47.738;7.998;2023-11-19T13:57:42;12.50;99.90
1453;DHT22;720;47.738;7.998;2023-11-19T14:00:09;12.40;99.90
1453;DHT22;720;47.738;7.998;2023-11-19T14:02:44;12.20;99.90
1453;DHT22;720;47.738;7.998;2023-11-19T14:05:10;12.20;99.90
1453;DHT22;720;47.738;7.998;2023-11-19T14:07:42;12.20;99.90
1453;DHT22;720;47.738;7.998;2023-11-19T14:10:09;12.30;99.90
1453;DHT22;720;47.738;7.998;2023-11-19T14:12:36;12.30;99.90
1453;DHT22;720;47.738;7.998;2023-11-19T14:15:04;12.30;99.90
1453;DHT22;720;47.738;7.998;2023-11-19T14:17:31;12.30;99.90
1453;DHT22;720;47.738;7.998;2023-11-19T14:19:57;12.20;99.90
1453;DHT22;720;47.738;7.998;2023-11-19T14:22:23;12.00;99.90
1453;DHT22;720;47.738;7.998;2023-11-19T14:24:49;11.90;99.90
1453;DHT22;720;47.738;7.998;2023-11-19T14:27:14;11.70;99.90
1453;DHT22;720;47.738;7.998;2023-11-19T14:29:42;11.50;99.90
1453;DHT22;720;47.738;7.998;2023-11-19T14:32:08;11.40;99.90
1453;DHT22;720;47.738;7.998;2023-11-19T14:34:34;11.30;99.90
1453;DHT22;720;47.738;7.998;2023-11-19T14:36:59;11.20;99.90
1453;DHT22;720;47.738;7.998;2023-11-19T14:39:26;11.20;99.90
1453;DHT22;720;47.738;7.998;2023-11-19T14:41:52;11.00;99.90
1453;DHT22;720;47.738;7.998;2023-11-19T14:44:19;11.00;99.90
1453;DHT22;720;47.738;7.998;2023-11-19T14:46:46;10.90;99.90
1453;DHT22;720;47.738;7.998;2023-11-19T14:49:12;10.80;99.90
1453;DHT22;720;47.738;7.998;2023-11-19T14:51:39;10.90;99.90
1453;DHT22;720;47.738;7.998;2023-11-19T14:54:05;11.00;99.90
1453;DHT22;720;47.738;7.998;2023-11-19T14:56:32;10.90;99.90
1453;DHT22;720;47.738;7.998;2023-11-19T14:58:58;11.00;99.90
1453;DHT22;720;47.738;7.998;2023-11-19T15:01:24;11.10;99.90
1453;DHT22;720;47.738;7.998;2023-11-19T15:03:50;11.20;99.90
1453;DHT22;720;47.738;7.998;2023-11-19T15:06:18;11.30;99.90
1453;DHT22;720;47.738;7.998;2023-11-19T15:08:43;11.40;99.90
1453;DHT22;720;47.738;7.998;2023-11-19T15:11:10;11.50;99.90
1453;DHT22;720;47.738;7.998;2023-11-19T15:13:37;11.40;99.90
1453;DHT22;720;47.738;7.998;2023-11-19T15:16:06;11.20;99.90
1453;DHT22;720;47.738;7.998;2023-11-19T15:18:32;11.20;99.90
1453;DHT22;720;47.738;7.998;2023-11-19T15:20:57;11.20;99.90
1453;DHT22;720;47.738;7.998;2023-11-19T15:23:23;11.20;99.90
1453;DHT22;720;47.738;7.998;2023-11-19T15:25:50;11.30;99.90
1453;DHT22;720;47.738;7.998;2023-11-19T15:28:16;11.30;99.90
1453;DHT22;720;47.738;7.998;2023-11-19T15:30:42;11.40;99.90
1453;DHT22;720;47.738;7.998;2023-11-19T15:33:09;11.40;99.90
1453;DHT22;720;47.738;7.998;2023-11-19T15:35:34;11.30;99.90
1453;DHT22;720;47.738;7.998;2023-11-19T15:38:00;11.20;99.90
1453;DHT22;720;47.738;7.998;2023-11-19T15:40:26;11.30;99.90
1453;DHT22;720;47.738;7.998;2023-11-19T15:42:53;11.80;99.90
1453;DHT22;720;47.738;7.998;2023-11-19T15:45:20;12.80;99.90
1453;DHT22;720;47.738;7.998;2023-11-19T15:47:46;13.20;99.90
1453;DHT22;720;47.738;7.998;2023-11-19T15:50:12;13.10;99.90
1453;DHT22;720;47.738;7.998;2023-11-19T15:52:38;12.60;99.90
1453;DHT22;720;47.738;7.998;2023-11-19T15:55:04;12.10;99.90
1453;DHT22;720;47.738;7.998;2023-11-19T15:57:30;12.00;99.90
1453;DHT22;720;47.738;7.998;2023-11-19T15:59:55;11.90;99.90
1453;DHT22;720;47.738;7.998;2023-11-19T16:02:22;12.00;99.90
1453;DHT22;720;47.738;7.998;2023-11-19T16:04:48;12.40;99.90
1453;DHT22;720;47.738;7.998;2023-11-19T16:07:14;12.80;99.90
1453;DHT22;720;47.738;7.998;2023-11-19T16:09:40;12.90;99.90
1453;DHT22;720;47.738;7.998;2023-11-19T16:12:07;13.30;99.90
1453;DHT22;720;47.738;7.998;2023-11-19T16:14:34;13.40;99.90
1453;DHT22;720;47.738;7.998;2023-11-19T16:16:59;13.60;99.90
1453;DHT22;720;47.738;7.998;2023-11-19T16:19:25;13.60;99.90
1453;DHT22;720;47.738;7.998;2023-11-19T16:21:52;13.30;99.90
1453;DHT22;720;47.738;7.998;2023-11-19T16:24:18;13.40;99.90
1453;DHT22;720;47.738;7.998;2023-11-19T16:26:43;13.70;99.90
1453;DHT22;720;47.738;7.998;2023-11-19T16:29:09;13.60;99.90
1453;DHT22;720;47.738;7.998;2023-11-19T16:31:35;13.70;99.90
1453;DHT22;720;47.738;7.998;2023-11-19T16:34:00;13.70;99.90
1453;DHT22;720;47.738;7.998;2023-11-19T16:36:26;13.60;99.90